EWG2PM EDDH-EDDP
Flight info
| Callsign | EWG2PM |
|---|---|
| Flight time | 0h 38m |
| Altitude | 23000 |
| Route | AMLUH2G/33 AMLUH M852 DENIX Z113 SAS Z88 UPDAT T236 ADMOS T959 KOJEC KOJEC1V |
| Aircraft | A320/M-SDE3FGHIRWY/LB1 |
Departure
| Time | 2026-04-23 19:27 |
|---|---|
| Airport | Hamburg Helmut Schmidt Airport (EDDH) |
Arrival
| Time | 2026-04-23 20:05 |
|---|---|
| Airport | Leipzig/Halle Airport (EDDP) |
| Time | Latitude | Longitude | Altitude | Speed | Heading |
|---|---|---|---|---|---|
| 2026-04-23 18:56 | 53.63024 | 10.00375 | 45 ft | 0 kts | 122° |
| 2026-04-23 19:17 | 53.63037 | 10.00338 | 40 ft | 2 kts | 123° |
| 2026-04-23 19:17 | 53.63047 | 10.00315 | 41 ft | 2 kts | 125° |
| 2026-04-23 19:17 | 53.63056 | 10.00292 | 42 ft | 2 kts | 129° |
| 2026-04-23 19:17 | 53.63067 | 10.00272 | 42 ft | 2 kts | 146° |
| 2026-04-23 19:18 | 53.63082 | 10.00261 | 44 ft | 2 kts | 180° |
| 2026-04-23 19:18 | 53.63087 | 10.00261 | 41 ft | 0 kts | 180° |
| 2026-04-23 19:20 | 53.63086 | 10.00261 | 41 ft | 1 kts | 180° |
| 2026-04-23 19:20 | 53.63058 | 10.00248 | 44 ft | 9 kts | 207° |
| 2026-04-23 19:20 | 53.62984 | 10.00172 | 45 ft | 11 kts | 212° |
| 2026-04-23 19:20 | 53.62934 | 10.00118 | 46 ft | 8 kts | 213° |
| 2026-04-23 19:21 | 53.62886 | 10.00065 | 47 ft | 8 kts | 216° |
| 2026-04-23 19:21 | 53.62848 | 9.99972 | 48 ft | 0 kts | 242° |
| 2026-04-23 19:24 | 53.62848 | 9.99971 | 48 ft | 0 kts | 242° |
| 2026-04-23 19:24 | 53.62838 | 9.99942 | 48 ft | 5 kts | 242° |
| 2026-04-23 19:24 | 53.62833 | 9.99774 | 45 ft | 0 kts | 329° |
| 2026-04-23 19:25 | 53.62842 | 9.99765 | 47 ft | 9 kts | 329° |
| 2026-04-23 19:26 | 53.63811 | 9.98927 | 46 ft | 139 kts | 333° |
| 2026-04-23 19:26 | 53.64772 | 9.98128 | 396 ft | 156 kts | 330° |
| 2026-04-23 19:27 | 53.66714 | 9.96475 | 1697 ft | 168 kts | 333° |
| 2026-04-23 19:27 | 53.70361 | 9.94670 | 3762 ft | 193 kts | 358° |
| 2026-04-23 19:28 | 53.72999 | 9.95693 | 4920 ft | 215 kts | 41° |
| 2026-04-23 19:28 | 53.74124 | 10.00560 | 5009 ft | 230 kts | 73° |
| 2026-04-23 19:29 | 53.74072 | 10.03319 | 5170 ft | 244 kts | 99° |
| 2026-04-23 19:29 | 53.72416 | 10.08969 | 6135 ft | 290 kts | 116° |
| 2026-04-23 19:30 | 53.70404 | 10.14954 | 7750 ft | 300 kts | 115° |
| 2026-04-23 19:30 | 53.69215 | 10.17891 | 8597 ft | 308 kts | 129° |
| 2026-04-23 19:30 | 53.65620 | 10.21913 | 10035 ft | 319 kts | 162° |
| 2026-04-23 19:31 | 53.63481 | 10.22917 | 10218 ft | 319 kts | 165° |
| 2026-04-23 19:31 | 53.61245 | 10.23915 | 10258 ft | 348 kts | 165° |
| 2026-04-23 19:31 | 53.58841 | 10.24985 | 10560 ft | 368 kts | 165° |
| 2026-04-23 19:31 | 53.56305 | 10.26120 | 10966 ft | 382 kts | 165° |
| 2026-04-23 19:32 | 53.53715 | 10.27292 | 11627 ft | 388 kts | 165° |
| 2026-04-23 19:32 | 53.51097 | 10.28484 | 12331 ft | 392 kts | 165° |
| 2026-04-23 19:32 | 53.48486 | 10.29680 | 13058 ft | 395 kts | 165° |
| 2026-04-23 19:32 | 53.45827 | 10.30896 | 13771 ft | 399 kts | 165° |
| 2026-04-23 19:33 | 53.43121 | 10.31984 | 14419 ft | 402 kts | 168° |
| 2026-04-23 19:33 | 53.40366 | 10.32908 | 15047 ft | 405 kts | 169° |
| 2026-04-23 19:33 | 53.34776 | 10.34540 | 16302 ft | 410 kts | 171° |
| 2026-04-23 19:34 | 53.31954 | 10.35353 | 16934 ft | 413 kts | 170° |
| 2026-04-23 19:34 | 53.29117 | 10.36196 | 17557 ft | 416 kts | 170° |
| 2026-04-23 19:34 | 53.23388 | 10.37963 | 18767 ft | 422 kts | 169° |
| 2026-04-23 19:35 | 53.20492 | 10.38877 | 19305 ft | 425 kts | 169° |
| 2026-04-23 19:35 | 53.17621 | 10.39788 | 19819 ft | 428 kts | 169° |
| 2026-04-23 19:35 | 53.14680 | 10.40720 | 20337 ft | 431 kts | 169° |
| 2026-04-23 19:35 | 53.11726 | 10.41649 | 20835 ft | 434 kts | 169° |
| 2026-04-23 19:36 | 53.08747 | 10.42584 | 21323 ft | 437 kts | 169° |
| 2026-04-23 19:36 | 53.05752 | 10.43514 | 21805 ft | 440 kts | 169° |
| 2026-04-23 19:36 | 53.02762 | 10.44437 | 22268 ft | 443 kts | 169° |
| 2026-04-23 19:36 | 52.99696 | 10.45380 | 22726 ft | 446 kts | 169° |
| 2026-04-23 19:37 | 52.96676 | 10.46311 | 23131 ft | 448 kts | 169° |
| 2026-04-23 19:37 | 52.93603 | 10.47262 | 23234 ft | 453 kts | 169° |
| 2026-04-23 19:37 | 52.90462 | 10.48233 | 23251 ft | 464 kts | 169° |
| 2026-04-23 19:37 | 52.87271 | 10.49220 | 23242 ft | 469 kts | 169° |
| 2026-04-23 19:38 | 52.84059 | 10.50208 | 23244 ft | 470 kts | 169° |
| 2026-04-23 19:38 | 52.80848 | 10.51196 | 23244 ft | 470 kts | 169° |
| 2026-04-23 19:38 | 52.77635 | 10.52185 | 23249 ft | 470 kts | 169° |
| 2026-04-23 19:38 | 52.74420 | 10.53170 | 23244 ft | 470 kts | 169° |
| 2026-04-23 19:39 | 52.71206 | 10.54158 | 23251 ft | 470 kts | 169° |
| 2026-04-23 19:39 | 52.67989 | 10.55144 | 23245 ft | 470 kts | 169° |
| 2026-04-23 19:39 | 52.64778 | 10.56126 | 23255 ft | 469 kts | 169° |
| 2026-04-23 19:39 | 52.61570 | 10.57106 | 23244 ft | 469 kts | 169° |
| 2026-04-23 19:40 | 52.58403 | 10.58066 | 23241 ft | 469 kts | 169° |
| 2026-04-23 19:40 | 52.55190 | 10.59040 | 23239 ft | 469 kts | 169° |
| 2026-04-23 19:40 | 52.51984 | 10.60014 | 23236 ft | 469 kts | 169° |
| 2026-04-23 19:40 | 52.48781 | 10.60989 | 23236 ft | 469 kts | 169° |
| 2026-04-23 19:41 | 52.45575 | 10.61960 | 23239 ft | 468 kts | 169° |
| 2026-04-23 19:41 | 52.42370 | 10.62927 | 23233 ft | 468 kts | 169° |
| 2026-04-23 19:41 | 52.39162 | 10.63893 | 23236 ft | 468 kts | 169° |
| 2026-04-23 19:41 | 52.35955 | 10.64853 | 23234 ft | 468 kts | 169° |
| 2026-04-23 19:42 | 52.32757 | 10.65812 | 23226 ft | 468 kts | 169° |
| 2026-04-23 19:42 | 52.29548 | 10.66771 | 23235 ft | 468 kts | 169° |
| 2026-04-23 19:42 | 52.26386 | 10.67717 | 23233 ft | 468 kts | 169° |
| 2026-04-23 19:42 | 52.23186 | 10.68674 | 23228 ft | 468 kts | 169° |
| 2026-04-23 19:43 | 52.19983 | 10.69630 | 23236 ft | 468 kts | 169° |
| 2026-04-23 19:43 | 52.16777 | 10.70585 | 23235 ft | 468 kts | 169° |
| 2026-04-23 19:43 | 52.13579 | 10.71536 | 23238 ft | 468 kts | 169° |
| 2026-04-23 19:43 | 52.10391 | 10.72495 | 22831 ft | 463 kts | 167° |
| 2026-04-23 19:44 | 52.07362 | 10.74149 | 22074 ft | 457 kts | 152° |
| 2026-04-23 19:44 | 52.04728 | 10.76933 | 21364 ft | 450 kts | 139° |
| 2026-04-23 19:44 | 52.02349 | 10.80216 | 20641 ft | 447 kts | 137° |
| 2026-04-23 19:44 | 51.99992 | 10.83495 | 19977 ft | 444 kts | 137° |
| 2026-04-23 19:45 | 51.97666 | 10.86749 | 19341 ft | 440 kts | 137° |
| 2026-04-23 19:45 | 51.95486 | 10.90092 | 18735 ft | 434 kts | 128° |
| 2026-04-23 19:45 | 51.93798 | 10.94077 | 18075 ft | 428 kts | 119° |
| 2026-04-23 19:45 | 51.92247 | 10.98183 | 17463 ft | 425 kts | 118° |
| 2026-04-23 19:46 | 51.90717 | 11.02271 | 17233 ft | 425 kts | 118° |
| 2026-04-23 19:46 | 51.89190 | 11.06375 | 17225 ft | 425 kts | 118° |
| 2026-04-23 19:46 | 51.87662 | 11.10475 | 17229 ft | 426 kts | 118° |
| 2026-04-23 19:46 | 51.86129 | 11.14566 | 17227 ft | 426 kts | 118° |
| 2026-04-23 19:47 | 51.85110 | 11.17272 | 17147 ft | 424 kts | 118° |
| 2026-04-23 19:47 | 51.83066 | 11.22676 | 16338 ft | 419 kts | 119° |
| 2026-04-23 19:47 | 51.81551 | 11.26671 | 15752 ft | 416 kts | 119° |
| 2026-04-23 19:47 | 51.80043 | 11.30644 | 15179 ft | 413 kts | 119° |
| 2026-04-23 19:48 | 51.78567 | 11.34530 | 14621 ft | 410 kts | 119° |
| 2026-04-23 19:48 | 51.77078 | 11.38438 | 14068 ft | 407 kts | 119° |
| 2026-04-23 19:48 | 51.75604 | 11.42312 | 13430 ft | 404 kts | 119° |
| 2026-04-23 19:48 | 51.74137 | 11.46165 | 12805 ft | 401 kts | 119° |
| 2026-04-23 19:49 | 51.72680 | 11.49980 | 12193 ft | 397 kts | 119° |
| 2026-04-23 19:49 | 51.71238 | 11.53753 | 11582 ft | 394 kts | 118° |
| 2026-04-23 19:49 | 51.69802 | 11.57502 | 11278 ft | 393 kts | 118° |
| 2026-04-23 19:49 | 51.68368 | 11.61235 | 10912 ft | 389 kts | 118° |
| 2026-04-23 19:50 | 51.66943 | 11.64932 | 10277 ft | 386 kts | 118° |
| 2026-04-23 19:50 | 51.65565 | 11.68503 | 10002 ft | 373 kts | 118° |
| 2026-04-23 19:50 | 51.64225 | 11.71975 | 9877 ft | 357 kts | 118° |
| 2026-04-23 19:50 | 51.62943 | 11.75296 | 9743 ft | 342 kts | 118° |
| 2026-04-23 19:51 | 51.61716 | 11.78477 | 9608 ft | 328 kts | 118° |
| 2026-04-23 19:51 | 51.60537 | 11.81536 | 9477 ft | 316 kts | 118° |
| 2026-04-23 19:51 | 51.59397 | 11.84479 | 9333 ft | 305 kts | 118° |
| 2026-04-23 19:51 | 51.58285 | 11.87340 | 9029 ft | 300 kts | 118° |
| 2026-04-23 19:52 | 51.57557 | 11.89216 | 8787 ft | 298 kts | 118° |
| 2026-04-23 19:52 | 51.56103 | 11.92993 | 8292 ft | 295 kts | 116° |
| 2026-04-23 19:52 | 51.55219 | 11.95925 | 8211 ft | 291 kts | 108° |
| 2026-04-23 19:52 | 51.54591 | 11.98961 | 8221 ft | 289 kts | 100° |
| 2026-04-23 19:53 | 51.54208 | 12.02120 | 8221 ft | 287 kts | 92° |
| 2026-04-23 19:53 | 51.54083 | 12.05302 | 8220 ft | 284 kts | 85° |
| 2026-04-23 19:53 | 51.54195 | 12.08461 | 8220 ft | 283 kts | 81° |
| 2026-04-23 19:53 | 51.54350 | 12.11603 | 8222 ft | 283 kts | 81° |
| 2026-04-23 19:54 | 51.54502 | 12.14751 | 8223 ft | 283 kts | 81° |
| 2026-04-23 19:54 | 51.54649 | 12.17898 | 8219 ft | 283 kts | 81° |
| 2026-04-23 19:54 | 51.54794 | 12.21027 | 7961 ft | 280 kts | 81° |
| 2026-04-23 19:54 | 51.54890 | 12.23094 | 7686 ft | 280 kts | 81° |
| 2026-04-23 19:55 | 51.55077 | 12.27216 | 7150 ft | 278 kts | 82° |
| 2026-04-23 19:55 | 51.55215 | 12.30310 | 6752 ft | 278 kts | 82° |
| 2026-04-23 19:55 | 51.55357 | 12.33403 | 6329 ft | 277 kts | 82° |
| 2026-04-23 19:55 | 51.55500 | 12.36471 | 5932 ft | 275 kts | 82° |
| 2026-04-23 19:56 | 51.55641 | 12.39529 | 5510 ft | 274 kts | 83° |
| 2026-04-23 19:56 | 51.55732 | 12.41544 | 5245 ft | 273 kts | 83° |
| 2026-04-23 19:56 | 51.55867 | 12.44571 | 4844 ft | 271 kts | 83° |
| 2026-04-23 19:56 | 51.56001 | 12.47578 | 4430 ft | 269 kts | 83° |
| 2026-04-23 19:57 | 51.56134 | 12.50560 | 4015 ft | 267 kts | 83° |
| 2026-04-23 19:57 | 51.56309 | 12.54498 | 3459 ft | 266 kts | 83° |
| 2026-04-23 19:57 | 51.56397 | 12.56500 | 3164 ft | 265 kts | 83° |
| 2026-04-23 19:57 | 51.56284 | 12.60376 | 2984 ft | 261 kts | 107° |
| 2026-04-23 19:58 | 51.55717 | 12.62062 | 2994 ft | 250 kts | 129° |
| 2026-04-23 19:58 | 51.54377 | 12.63628 | 2994 ft | 232 kts | 162° |
| 2026-04-23 19:58 | 51.52855 | 12.64174 | 2994 ft | 219 kts | 173° |
| 2026-04-23 19:58 | 51.51424 | 12.64493 | 3035 ft | 202 kts | 175° |
| 2026-04-23 19:59 | 51.50036 | 12.64736 | 3002 ft | 200 kts | 184° |
| 2026-04-23 19:59 | 51.48776 | 12.64040 | 2991 ft | 191 kts | 223° |
| 2026-04-23 19:59 | 51.47839 | 12.62563 | 3007 ft | 188 kts | 233° |
| 2026-04-23 19:59 | 51.46981 | 12.60977 | 3002 ft | 188 kts | 234° |
| 2026-04-23 20:00 | 51.46135 | 12.59378 | 3005 ft | 188 kts | 235° |
| 2026-04-23 20:00 | 51.45292 | 12.57776 | 3007 ft | 187 kts | 237° |
| 2026-04-23 20:00 | 51.44720 | 12.55990 | 3008 ft | 180 kts | 261° |
| 2026-04-23 20:00 | 51.44582 | 12.54023 | 3016 ft | 177 kts | 271° |
| 2026-04-23 20:01 | 51.44498 | 12.52093 | 3007 ft | 171 kts | 270° |
| 2026-04-23 20:01 | 51.44416 | 12.50209 | 3007 ft | 168 kts | 271° |
| 2026-04-23 20:01 | 51.44335 | 12.48340 | 2995 ft | 168 kts | 271° |
| 2026-04-23 20:01 | 51.44253 | 12.46474 | 2876 ft | 168 kts | 271° |
| 2026-04-23 20:02 | 51.44170 | 12.44613 | 2673 ft | 166 kts | 271° |
| 2026-04-23 20:02 | 51.44088 | 12.42776 | 2474 ft | 164 kts | 271° |
| 2026-04-23 20:02 | 51.44008 | 12.40978 | 2249 ft | 164 kts | 271° |
| 2026-04-23 20:02 | 51.43927 | 12.39178 | 2022 ft | 157 kts | 271° |
| 2026-04-23 20:03 | 51.43850 | 12.37530 | 1811 ft | 141 kts | 272° |
| 2026-04-23 20:03 | 51.43782 | 12.36012 | 1629 ft | 134 kts | 271° |
| 2026-04-23 20:03 | 51.43717 | 12.34545 | 1451 ft | 131 kts | 271° |
| 2026-04-23 20:03 | 51.43653 | 12.33097 | 1266 ft | 130 kts | 270° |
| 2026-04-23 20:04 | 51.43596 | 12.31650 | 1079 ft | 131 kts | 268° |
| 2026-04-23 20:04 | 51.43528 | 12.30192 | 942 ft | 131 kts | 268° |
| 2026-04-23 20:04 | 51.43452 | 12.28746 | 750 ft | 132 kts | 266° |
| 2026-04-23 20:04 | 51.43387 | 12.27288 | 587 ft | 131 kts | 266° |
| 2026-04-23 20:05 | 51.43320 | 12.25847 | 463 ft | 123 kts | 266° |
| 2026-04-23 20:05 | 51.43270 | 12.24673 | 450 ft | 83 kts | 266° |
| 2026-04-23 20:05 | 51.43237 | 12.24029 | 446 ft | 35 kts | 260° |
| 2026-04-23 20:05 | 51.43152 | 12.23689 | 450 ft | 31 kts | 238° |
| 2026-04-23 20:06 | 51.43043 | 12.23464 | 446 ft | 20 kts | 211° |
| 2026-04-23 20:06 | 51.42922 | 12.23435 | 440 ft | 15 kts | 202° |
| 2026-04-23 20:06 | 51.42894 | 12.23274 | 439 ft | 16 kts | 268° |
| 2026-04-23 20:06 | 51.42886 | 12.23089 | 433 ft | 18 kts | 265° |
| 2026-04-23 20:07 | 51.42878 | 12.22887 | 429 ft | 19 kts | 264° |
| 2026-04-23 20:07 | 51.42869 | 12.22682 | 440 ft | 18 kts | 268° |
| 2026-04-23 20:07 | 51.42856 | 12.22465 | 437 ft | 21 kts | 263° |
| 2026-04-23 20:07 | 51.42844 | 12.22233 | 429 ft | 20 kts | 266° |
| 2026-04-23 20:08 | 51.42836 | 12.22017 | 433 ft | 21 kts | 267° |
| 2026-04-23 20:08 | 51.42823 | 12.21774 | 429 ft | 23 kts | 264° |
| 2026-04-23 20:08 | 51.42811 | 12.21506 | 430 ft | 25 kts | 266° |
| 2026-04-23 20:08 | 51.42795 | 12.21280 | 425 ft | 15 kts | 249° |
| 2026-04-23 20:09 | 51.42693 | 12.21201 | 423 ft | 20 kts | 198° |
| 2026-04-23 20:09 | 51.42572 | 12.21145 | 439 ft | 18 kts | 190° |
| 2026-04-23 20:09 | 51.42438 | 12.21093 | 442 ft | 21 kts | 195° |
| 2026-04-23 20:09 | 51.42282 | 12.21023 | 428 ft | 26 kts | 195° |
| 2026-04-23 20:10 | 51.42162 | 12.21016 | 430 ft | 18 kts | 136° |
| 2026-04-23 20:10 | 51.42126 | 12.21184 | 430 ft | 12 kts | 105° |
| 2026-04-23 20:10 | 51.42112 | 12.21304 | 428 ft | 10 kts | 102° |
| 2026-04-23 20:10 | 51.42095 | 12.21404 | 426 ft | 8 kts | 105° |
| 2026-04-23 20:11 | 51.42081 | 12.21486 | 427 ft | 7 kts | 105° |
| 2026-04-23 20:11 | 51.42053 | 12.21504 | 433 ft | 3 kts | 196° |
| 2026-04-23 20:11 | 51.42038 | 12.21497 | 433 ft | 3 kts | 195° |
| 2026-04-23 20:11 | 51.42029 | 12.21494 | 433 ft | 0 kts | 195° |